sensor_id;sensor_type;location;lat;lon;timestamp;pressure;altitude;pressure_sealevel;temperature;humidity
71903;BME280;59778;50.310;18.780;2023-03-25T00:13:27;97751.75;;;12.28;94.32
71903;BME280;59778;50.310;18.780;2023-03-25T00:28:51;97757.25;;;12.21;95.07
71903;BME280;59778;50.310;18.780;2023-03-25T00:44:13;97757.34;;;12.15;95.81
71903;BME280;59778;50.310;18.780;2023-03-25T00:59:34;97757.69;;;12.07;96.01
71903;BME280;59778;50.310;18.780;2023-03-25T01:14:55;97759.72;;;11.93;93.00
71903;BME280;59778;50.310;18.780;2023-03-25T01:30:17;97764.72;;;11.96;89.61
71903;BME280;59778;50.310;18.780;2023-03-25T01:45:38;97753.38;;;11.63;84.25
71903;BME280;59778;50.310;18.780;2023-03-25T02:01:00;97740.28;;;11.35;81.09
71903;BME280;59778;50.310;18.780;2023-03-25T02:47:46;97756.88;;;11.27;81.72
71903;BME280;59778;50.310;18.780;2023-03-25T03:03:08;97782.16;;;11.09;82.12
71903;BME280;59778;50.310;18.780;2023-03-25T03:18:42;97790.97;;;11.05;83.61
71903;BME280;59778;50.310;18.780;2023-03-25T03:34:42;97791.03;;;10.98;82.77
71903;BME280;59778;50.310;18.780;2023-03-25T03:50:14;97796.69;;;10.97;83.72
71903;BME280;59778;50.310;18.780;2023-03-25T04:05:37;97789.28;;;10.79;85.65
71903;BME280;59778;50.310;18.780;2023-03-25T04:21:00;97801.09;;;10.66;87.13
71903;BME280;59778;50.310;18.780;2023-03-25T04:36:21;97814.22;;;10.38;87.54
71903;BME280;59778;50.310;18.780;2023-03-25T04:51:43;97826.63;;;10.14;88.16
71903;BME280;59778;50.310;18.780;2023-03-25T05:07:05;97830.75;;;10.30;88.10
71903;BME280;59778;50.310;18.780;2023-03-25T05:22:26;97840.72;;;9.91;90.86
71903;BME280;59778;50.310;18.780;2023-03-25T05:37:48;97849.16;;;10.21;90.55
71903;BME280;59778;50.310;18.780;2023-03-25T05:53:12;97850.91;;;10.47;88.65
71903;BME280;59778;50.310;18.780;2023-03-25T06:08:35;97845.44;;;10.54;89.38
71903;BME280;59778;50.310;18.780;2023-03-25T06:23:57;97868.09;;;11.04;85.33
71903;BME280;59778;50.310;18.780;2023-03-25T06:39:20;97876.59;;;11.39;84.02
71903;BME280;59778;50.310;18.780;2023-03-25T06:54:42;97871.06;;;11.27;85.38
71903;BME280;59778;50.310;18.780;2023-03-25T07:10:03;97868.16;;;11.71;84.59
71903;BME280;59778;50.310;18.780;2023-03-25T07:25:25;97858.09;;;12.63;78.56
71903;BME280;59778;50.310;18.780;2023-03-25T07:40:46;97830.88;;;12.45;75.91
71903;BME280;59778;50.310;18.780;2023-03-25T07:56:09;97830.44;;;12.48;75.54
71903;BME280;59778;50.310;18.780;2023-03-25T08:11:31;97837.19;;;13.51;70.11
71903;BME280;59778;50.310;18.780;2023-03-25T08:26:54;97803.59;;;13.97;67.81
71903;BME280;59778;50.310;18.780;2023-03-25T08:42:16;97801.56;;;14.04;67.84
71903;BME280;59778;50.310;18.780;2023-03-25T08:57:38;97799.09;;;14.31;65.98
71903;BME280;59778;50.310;18.780;2023-03-25T09:12:59;97794.94;;;14.69;63.74
71903;BME280;59778;50.310;18.780;2023-03-25T09:28:20;97777.59;;;15.08;58.85
71903;BME280;59778;50.310;18.780;2023-03-25T09:59:49;97766.59;;;13.90;66.60
71903;BME280;59778;50.310;18.780;2023-03-25T10:30:51;97776.22;;;14.21;60.61
71903;BME280;59778;50.310;18.780;2023-03-25T10:46:33;97739.31;;;15.25;55.09
71903;BME280;59778;50.310;18.780;2023-03-25T11:01:58;97729.38;;;14.40;58.75
71903;BME280;59778;50.310;18.780;2023-03-25T11:17:20;97710.91;;;14.92;57.52
71903;BME280;59778;50.310;18.780;2023-03-25T11:32:56;97701.78;;;15.03;55.36
71903;BME280;59778;50.310;18.780;2023-03-25T11:48:23;97695.56;;;15.08;54.40
71903;BME280;59778;50.310;18.780;2023-03-25T12:03:51;97741.22;;;13.08;65.49
71903;BME280;59778;50.310;18.780;2023-03-25T12:50:59;97695.38;;;15.15;60.51
71903;BME280;59778;50.310;18.780;2023-03-25T13:21:58;97681.91;;;14.91;52.63
71903;BME280;59778;50.310;18.780;2023-03-25T13:37:40;97663.72;;;14.07;53.18
71903;BME280;59778;50.310;18.780;2023-03-25T13:53:27;97668.22;;;14.58;50.14
71903;BME280;59778;50.310;18.780;2023-03-25T14:24:48;97690.59;;;13.70;54.67
71903;BME280;59778;50.310;18.780;2023-03-25T14:40:48;97673.91;;;13.32;53.94
71903;BME280;59778;50.310;18.780;2023-03-25T14:56:17;97713.47;;;12.64;59.09
71903;BME280;59778;50.310;18.780;2023-03-25T15:11:42;97720.25;;;11.72;67.87
71903;BME280;59778;50.310;18.780;2023-03-25T15:27:48;97716.38;;;12.40;66.21
71903;BME280;59778;50.310;18.780;2023-03-25T15:58:46;97716.31;;;13.74;58.33
71903;BME280;59778;50.310;18.780;2023-03-25T16:29:32;97735.94;;;11.89;61.75
71903;BME280;59778;50.310;18.780;2023-03-25T16:44:53;97757.25;;;11.92;60.15
71903;BME280;59778;50.310;18.780;2023-03-25T17:00:20;97755.56;;;11.36;64.02
71903;BME280;59778;50.310;18.780;2023-03-25T17:15:45;97762.31;;;11.09;66.48
71903;BME280;59778;50.310;18.780;2023-03-25T17:46:50;97778.81;;;10.58;70.75
71903;BME280;59778;50.310;18.780;2023-03-25T18:02:13;97762.53;;;10.51;70.88
71903;BME280;59778;50.310;18.780;2023-03-25T18:17:34;97791.78;;;10.18;71.96
71903;BME280;59778;50.310;18.780;2023-03-25T18:32:56;97787.00;;;9.49;74.63
71903;BME280;59778;50.310;18.780;2023-03-25T18:48:19;97782.63;;;9.55;73.97
71903;BME280;59778;50.310;18.780;2023-03-25T19:03:41;97776.22;;;9.36;73.10
71903;BME280;59778;50.310;18.780;2023-03-25T19:19:02;97775.03;;;8.92;75.59
71903;BME280;59778;50.310;18.780;2023-03-25T19:34:24;97780.44;;;8.79;76.84
71903;BME280;59778;50.310;18.780;2023-03-25T19:49:45;97781.06;;;8.94;76.32
71903;BME280;59778;50.310;18.780;2023-03-25T20:05:07;97777.94;;;8.84;75.92
71903;BME280;59778;50.310;18.780;2023-03-25T20:20:30;97782.88;;;8.41;78.78
71903;BME280;59778;50.310;18.780;2023-03-25T20:35:52;97807.31;;;7.94;80.90
71903;BME280;59778;50.310;18.780;2023-03-25T20:51:13;97818.94;;;8.68;73.95
71903;BME280;59778;50.310;18.780;2023-03-25T21:06:34;97830.84;;;8.87;71.30
71903;BME280;59778;50.310;18.780;2023-03-25T21:21:55;97853.56;;;8.92;67.16
71903;BME280;59778;50.310;18.780;2023-03-25T21:37:17;97846.44;;;8.98;66.39
71903;BME280;59778;50.310;18.780;2023-03-25T21:52:41;97841.66;;;9.07;65.61
71903;BME280;59778;50.310;18.780;2023-03-25T22:08:06;97850.41;;;9.09;65.13
71903;BME280;59778;50.310;18.780;2023-03-25T22:23:27;97845.41;;;8.99;66.76
71903;BME280;59778;50.310;18.780;2023-03-25T22:38:49;97844.56;;;8.85;69.93
71903;BME280;59778;50.310;18.780;2023-03-25T22:54:16;97850.78;;;8.60;75.08
71903;BME280;59778;50.310;18.780;2023-03-25T23:09:37;97870.63;;;8.26;77.11
71903;BME280;59778;50.310;18.780;2023-03-25T23:25:02;97866.69;;;8.28;77.80
71903;BME280;59778;50.310;18.780;2023-03-25T23:40:25;97862.25;;;8.14;78.52
71903;BME280;59778;50.310;18.780;2023-03-25T23:55:47;97862.72;;;8.18;79.61
